sensor_id;sensor_type;location;lat;lon;timestamp;pressure;altitude;pressure_sealevel;temperature;humidity
30021;BME280;16861;52.294;7.760;2024-02-15T00:01:42;99848.66;;;13.85;90.57
30021;BME280;16861;52.294;7.760;2024-02-15T00:04:09;99843.38;;;13.85;90.55
30021;BME280;16861;52.294;7.760;2024-02-15T00:06:37;99853.97;;;13.85;90.77
30021;BME280;16861;52.294;7.760;2024-02-15T00:09:04;99853.84;;;13.87;90.52
30021;BME280;16861;52.294;7.760;2024-02-15T00:11:31;99859.97;;;13.87;90.48
30021;BME280;16861;52.294;7.760;2024-02-15T00:13:59;99860.09;;;13.86;90.64
30021;BME280;16861;52.294;7.760;2024-02-15T00:16:26;99855.66;;;13.86;90.60
30021;BME280;16861;52.294;7.760;2024-02-15T00:18:53;99845.06;;;13.86;90.68
30021;BME280;16861;52.294;7.760;2024-02-15T00:21:22;99839.78;;;13.86;90.64
30021;BME280;16861;52.294;7.760;2024-02-15T00:23:49;99846.97;;;13.84;90.70
30021;BME280;16861;52.294;7.760;2024-02-15T00:26:15;99846.03;;;13.85;90.70
30021;BME280;16861;52.294;7.760;2024-02-15T00:28:42;99851.22;;;13.87;90.63
30021;BME280;16861;52.294;7.760;2024-02-15T00:31:09;99851.22;;;13.87;90.45
30021;BME280;16861;52.294;7.760;2024-02-15T00:33:36;99846.75;;;13.87;90.58
30021;BME280;16861;52.294;7.760;2024-02-15T00:36:04;99860.09;;;13.86;90.18
30021;BME280;16861;52.294;7.760;2024-02-15T00:38:34;99843.38;;;13.85;89.79
30021;BME280;16861;52.294;7.760;2024-02-15T00:41:01;99855.66;;;13.86;90.00
30021;BME280;16861;52.294;7.760;2024-02-15T00:43:29;99848.56;;;13.87;90.42
30021;BME280;16861;52.294;7.760;2024-02-15T00:45:56;99862.63;;;13.87;90.33
30021;BME280;16861;52.294;7.760;2024-02-15T00:48:23;99853.00;;;13.86;90.20
30021;BME280;16861;52.294;7.760;2024-02-15T00:50:52;99851.22;;;13.87;90.33
30021;BME280;16861;52.294;7.760;2024-02-15T00:53:18;99862.63;;;13.87;90.31
30021;BME280;16861;52.294;7.760;2024-02-15T00:55:45;99846.75;;;13.87;90.15
30021;BME280;16861;52.294;7.760;2024-02-15T00:58:12;99846.03;;;13.85;90.09
30021;BME280;16861;52.294;7.760;2024-02-15T01:00:38;99852.03;;;13.87;90.22
30021;BME280;16861;52.294;7.760;2024-02-15T01:03:05;99852.91;;;13.88;90.21
30021;BME280;16861;52.294;7.760;2024-02-15T01:05:31;99853.84;;;13.87;90.05
30021;BME280;16861;52.294;7.760;2024-02-15T01:07:58;99853.09;;;13.85;90.09
30021;BME280;16861;52.294;7.760;2024-02-15T01:10:25;99860.94;;;13.86;90.17
30021;BME280;16861;52.294;7.760;2024-02-15T01:12:53;99857.47;;;13.86;90.12
30021;BME280;16861;52.294;7.760;2024-02-15T01:15:19;99861.03;;;13.85;90.15
30021;BME280;16861;52.294;7.760;2024-02-15T01:17:47;99864.44;;;13.87;90.05
30021;BME280;16861;52.294;7.760;2024-02-15T01:20:13;99860.22;;;13.84;90.08
30021;BME280;16861;52.294;7.760;2024-02-15T01:22:40;99868.97;;;13.85;90.27
30021;BME280;16861;52.294;7.760;2024-02-15T01:25:07;99869.72;;;13.87;90.18
30021;BME280;16861;52.294;7.760;2024-02-15T01:27:35;99874.94;;;13.88;90.28
30021;BME280;16861;52.294;7.760;2024-02-15T01:30:02;99860.94;;;13.86;90.06
30021;BME280;16861;52.294;7.760;2024-02-15T01:32:30;99856.50;;;13.87;90.03
30021;BME280;16861;52.294;7.760;2024-02-15T01:34:57;99864.53;;;13.85;89.95
30021;BME280;16861;52.294;7.760;2024-02-15T01:37:24;99868.88;;;13.86;90.10
30021;BME280;16861;52.294;7.760;2024-02-15T01:39:51;99862.75;;;13.86;89.96
30021;BME280;16861;52.294;7.760;2024-02-15T01:42:18;99862.75;;;13.86;90.10
30021;BME280;16861;52.294;7.760;2024-02-15T01:44:45;99868.97;;;13.85;90.09
30021;BME280;16861;52.294;7.760;2024-02-15T01:47:14;99862.00;;;13.84;90.17
30021;BME280;16861;52.294;7.760;2024-02-15T01:49:42;99868.16;;;13.84;90.13
30021;BME280;16861;52.294;7.760;2024-02-15T01:52:09;99864.66;;;13.84;90.21
30021;BME280;16861;52.294;7.760;2024-02-15T01:54:36;99866.44;;;13.83;90.23
30021;BME280;16861;52.294;7.760;2024-02-15T01:57:05;99861.13;;;13.83;90.24
30021;BME280;16861;52.294;7.760;2024-02-15T01:59:32;99863.69;;;13.85;90.09
30021;BME280;16861;52.294;7.760;2024-02-15T02:02:01;99865.50;;;13.84;89.88
30021;BME280;16861;52.294;7.760;2024-02-15T02:04:28;99864.66;;;13.84;90.16
30021;BME280;16861;52.294;7.760;2024-02-15T02:06:55;99859.47;;;13.82;90.18
30021;BME280;16861;52.294;7.760;2024-02-15T02:09:25;99864.75;;;13.82;90.33
30021;BME280;16861;52.294;7.760;2024-02-15T02:11:52;99861.28;;;13.81;90.16
30021;BME280;16861;52.294;7.760;2024-02-15T02:14:19;99855.13;;;13.81;90.36
30021;BME280;16861;52.294;7.760;2024-02-15T02:16:46;99857.00;;;13.79;90.19
30021;BME280;16861;52.294;7.760;2024-02-15T02:19:13;99857.00;;;13.79;90.34
30021;BME280;16861;52.294;7.760;2024-02-15T02:21:40;99852.56;;;13.79;90.36
30021;BME280;16861;52.294;7.760;2024-02-15T02:24:13;99849.31;;;13.76;90.24
30021;BME280;16861;52.294;7.760;2024-02-15T02:26:40;99855.22;;;13.79;90.49
30021;BME280;16861;52.294;7.760;2024-02-15T02:29:07;99859.88;;;13.76;90.44
30021;BME280;16861;52.294;7.760;2024-02-15T02:31:34;99849.31;;;13.76;90.52
30021;BME280;16861;52.294;7.760;2024-02-15T02:34:02;99844.13;;;13.74;90.54
30021;BME280;16861;52.294;7.760;2024-02-15T02:36:30;99849.31;;;13.76;90.60
30021;BME280;16861;52.294;7.760;2024-02-15T02:38:56;99849.41;;;13.74;90.61
30021;BME280;16861;52.294;7.760;2024-02-15T02:41:27;99850.28;;;13.75;90.67
30021;BME280;16861;52.294;7.760;2024-02-15T02:43:58;99850.38;;;13.73;90.58
30021;BME280;16861;52.294;7.760;2024-02-15T02:46:25;99855.66;;;13.73;90.78
30021;BME280;16861;52.294;7.760;2024-02-15T02:48:52;99844.22;;;13.73;90.65
30021;BME280;16861;52.294;7.760;2024-02-15T02:51:19;99844.13;;;13.74;90.78
30021;BME280;16861;52.294;7.760;2024-02-15T02:53:45;99851.19;;;13.74;90.69
30021;BME280;16861;52.294;7.760;2024-02-15T02:56:12;99845.19;;;13.72;90.97
30021;BME280;16861;52.294;7.760;2024-02-15T02:58:39;99843.25;;;13.74;90.86
30021;BME280;16861;52.294;7.760;2024-02-15T03:01:12;99848.56;;;13.74;90.82
30021;BME280;16861;52.294;7.760;2024-02-15T03:03:39;99843.16;;;13.75;91.04
30021;BME280;16861;52.294;7.760;2024-02-15T03:06:06;99845.69;;;13.77;91.04
30021;BME280;16861;52.294;7.760;2024-02-15T03:08:33;99842.19;;;13.76;90.91
30021;BME280;16861;52.294;7.760;2024-02-15T03:11:00;99843.16;;;13.75;90.72
30021;BME280;16861;52.294;7.760;2024-02-15T03:13:27;99841.28;;;13.77;90.80
30021;BME280;16861;52.294;7.760;2024-02-15T03:15:54;99835.97;;;13.77;90.70
30021;BME280;16861;52.294;7.760;2024-02-15T03:18:20;99852.69;;;13.78;90.58
30021;BME280;16861;52.294;7.760;2024-02-15T03:20:47;99846.56;;;13.77;90.86
30021;BME280;16861;52.294;7.760;2024-02-15T03:23:15;99851.84;;;13.77;90.57
30021;BME280;16861;52.294;7.760;2024-02-15T03:25:41;99845.59;;;13.78;90.63
30021;BME280;16861;52.294;7.760;2024-02-15T03:28:08;99853.53;;;13.78;90.66
30021;BME280;16861;52.294;7.760;2024-02-15T03:30:34;99847.38;;;13.78;90.59
30021;BME280;16861;52.294;7.760;2024-02-15T03:33:01;99852.69;;;13.78;90.58
30021;BME280;16861;52.294;7.760;2024-02-15T03:35:32;99849.06;;;13.79;90.62
30021;BME280;16861;52.294;7.760;2024-02-15T03:37:59;99841.13;;;13.79;90.60
30021;BME280;16861;52.294;7.760;2024-02-15T03:40:27;99845.50;;;13.80;90.68
30021;BME280;16861;52.294;7.760;2024-02-15T03:42:53;99851.63;;;13.80;90.58
30021;BME280;16861;52.294;7.760;2024-02-15T03:45:20;99845.50;;;13.80;90.58
30021;BME280;16861;52.294;7.760;2024-02-15T03:47:52;99841.03;;;13.80;90.54
30021;BME280;16861;52.294;7.760;2024-02-15T03:50:19;99848.97;;;13.80;90.62
30021;BME280;16861;52.294;7.760;2024-02-15T03:52:49;99845.41;;;13.81;90.60
30021;BME280;16861;52.294;7.760;2024-02-15T03:55:16;99842.75;;;13.81;90.52
30021;BME280;16861;52.294;7.760;2024-02-15T03:57:43;99833.09;;;13.80;90.51
30021;BME280;16861;52.294;7.760;2024-02-15T04:00:14;99841.91;;;13.81;90.56
30021;BME280;16861;52.294;7.760;2024-02-15T04:02:41;99855.03;;;13.83;90.56
30021;BME280;16861;52.294;7.760;2024-02-15T04:05:09;99847.09;;;13.83;90.66
30021;BME280;16861;52.294;7.760;2024-02-15T04:07:38;99850.56;;;13.83;90.45
30021;BME280;16861;52.294;7.760;2024-02-15T04:10:05;99854.16;;;13.82;90.52
30021;BME280;16861;52.294;7.760;2024-02-15T04:12:33;99849.72;;;13.83;90.54
30021;BME280;16861;52.294;7.760;2024-02-15T04:14:59;99848.03;;;13.81;90.35
30021;BME280;16861;52.294;7.760;2024-02-15T04:17:38;99855.03;;;13.83;90.44
30021;BME280;16861;52.294;7.760;2024-02-15T04:20:06;99848.88;;;13.82;90.62
30021;BME280;16861;52.294;7.760;2024-02-15T04:22:33;99854.06;;;13.84;90.20
30021;BME280;16861;52.294;7.760;2024-02-15T04:25:05;99851.50;;;13.82;90.58
30021;BME280;16861;52.294;7.760;2024-02-15T04:27:33;99854.91;;;13.84;90.37
30021;BME280;16861;52.294;7.760;2024-02-15T04:30:01;99857.56;;;13.84;90.36
30021;BME280;16861;52.294;7.760;2024-02-15T04:32:29;99862.84;;;13.84;90.24
30021;BME280;16861;52.294;7.760;2024-02-15T04:35:00;99850.56;;;13.83;90.32
30021;BME280;16861;52.294;7.760;2024-02-15T04:37:28;99854.16;;;13.82;90.34
30021;BME280;16861;52.294;7.760;2024-02-15T04:39:58;99857.66;;;13.83;90.55
30021;BME280;16861;52.294;7.760;2024-02-15T04:42:32;99850.56;;;13.83;90.41
30021;BME280;16861;52.294;7.760;2024-02-15T04:45:01;99849.84;;;13.81;90.59
30021;BME280;16861;52.294;7.760;2024-02-15T04:47:28;99850.78;;;13.80;90.49
30021;BME280;16861;52.294;7.760;2024-02-15T04:49:56;99841.91;;;13.81;90.56
30021;BME280;16861;52.294;7.760;2024-02-15T04:52:23;99845.50;;;13.80;90.62
30021;BME280;16861;52.294;7.760;2024-02-15T04:54:50;99843.69;;;13.80;90.63
30021;BME280;16861;52.294;7.760;2024-02-15T04:57:17;99844.53;;;13.81;90.68
30021;BME280;16861;52.294;7.760;2024-02-15T04:59:44;99848.16;;;13.80;90.56
30021;BME280;16861;52.294;7.760;2024-02-15T05:02:14;99841.91;;;13.81;90.43
30021;BME280;16861;52.294;7.760;2024-02-15T05:04:40;99841.91;;;13.81;90.70
30021;BME280;16861;52.294;7.760;2024-02-15T05:07:10;99835.75;;;13.80;90.40
30021;BME280;16861;52.294;7.760;2024-02-15T05:09:37;99833.97;;;13.81;90.48
30021;BME280;16861;52.294;7.760;2024-02-15T05:12:04;99828.75;;;13.79;90.39
30021;BME280;16861;52.294;7.760;2024-02-15T05:14:31;99832.28;;;13.80;90.41
30021;BME280;16861;52.294;7.760;2024-02-15T05:16:59;99830.44;;;13.80;90.50
30021;BME280;16861;52.294;7.760;2024-02-15T05:19:26;99824.44;;;13.78;90.63
30021;BME280;16861;52.294;7.760;2024-02-15T05:21:54;99827.91;;;13.79;90.41
30021;BME280;16861;52.294;7.760;2024-02-15T05:24:21;99827.91;;;13.79;90.37
30021;BME280;16861;52.294;7.760;2024-02-15T05:26:48;99842.97;;;13.78;90.30
30021;BME280;16861;52.294;7.760;2024-02-15T05:29:16;99824.44;;;13.78;90.74
30021;BME280;16861;52.294;7.760;2024-02-15T05:31:43;99822.63;;;13.79;90.45
30021;BME280;16861;52.294;7.760;2024-02-15T05:34:10;99826.22;;;13.78;90.19
30021;BME280;16861;52.294;7.760;2024-02-15T05:36:40;99832.38;;;13.78;90.16
30021;BME280;16861;52.294;7.760;2024-02-15T05:39:07;99826.22;;;13.78;90.42
30021;BME280;16861;52.294;7.760;2024-02-15T05:41:34;99815.63;;;13.78;90.44
30021;BME280;16861;52.294;7.760;2024-02-15T05:44:01;99813.97;;;13.77;90.17
30021;BME280;16861;52.294;7.760;2024-02-15T05:46:31;99806.88;;;13.77;90.32
30021;BME280;16861;52.294;7.760;2024-02-15T05:48:58;99796.41;;;13.76;90.31
30021;BME280;16861;52.294;7.760;2024-02-15T05:51:25;99793.97;;;13.73;90.21
30021;BME280;16861;52.294;7.760;2024-02-15T05:53:53;99799.16;;;13.74;90.23
30021;BME280;16861;52.294;7.760;2024-02-15T05:56:25;99791.31;;;13.73;90.38
30021;BME280;16861;52.294;7.760;2024-02-15T05:58:52;99803.56;;;13.74;90.12
30021;BME280;16861;52.294;7.760;2024-02-15T06:01:19;99800.22;;;13.72;90.20
30021;BME280;16861;52.294;7.760;2024-02-15T06:03:45;99801.03;;;13.72;90.40
30021;BME280;16861;52.294;7.760;2024-02-15T06:06:14;99802.00;;;13.71;90.44
30021;BME280;16861;52.294;7.760;2024-02-15T06:08:41;99802.84;;;13.72;90.40
30021;BME280;16861;52.294;7.760;2024-02-15T06:11:08;99808.25;;;13.70;90.43
30021;BME280;16861;52.294;7.760;2024-02-15T06:13:36;99798.53;;;13.71;90.31
30021;BME280;16861;52.294;7.760;2024-02-15T06:16:03;99790.59;;;13.71;90.30
30021;BME280;16861;52.294;7.760;2024-02-15T06:18:35;99782.66;;;13.71;89.93
30021;BME280;16861;52.294;7.760;2024-02-15T06:21:02;99781.78;;;13.70;90.27
30021;BME280;16861;52.294;7.760;2024-02-15T06:23:29;99773.97;;;13.68;90.08
30021;BME280;16861;52.294;7.760;2024-02-15T06:25:56;99759.88;;;13.68;90.29
30021;BME280;16861;52.294;7.760;2024-02-15T06:28:25;99763.47;;;13.67;90.35
30021;BME280;16861;52.294;7.760;2024-02-15T06:31:11;99768.06;;;13.65;90.05
30021;BME280;16861;52.294;7.760;2024-02-15T06:33:56;99763.72;;;13.64;90.04
30021;BME280;16861;52.294;7.760;2024-02-15T06:36:55;99769.31;;;13.59;89.87
30021;BME280;16861;52.294;7.760;2024-02-15T06:39:40;99765.50;;;13.63;90.21
30021;BME280;16861;52.294;7.760;2024-02-15T06:42:09;99769.94;;;13.63;90.36
30021;BME280;16861;52.294;7.760;2024-02-15T06:44:38;99775.22;;;13.63;90.32
30021;BME280;16861;52.294;7.760;2024-02-15T06:47:07;99777.88;;;13.63;90.48
30021;BME280;16861;52.294;7.760;2024-02-15T06:49:37;99784.13;;;13.62;90.53
30021;BME280;16861;52.294;7.760;2024-02-15T06:52:08;99786.66;;;13.63;90.62
30021;BME280;16861;52.294;7.760;2024-02-15T06:54:35;99784.03;;;13.63;90.53
30021;BME280;16861;52.294;7.760;2024-02-15T06:57:02;99789.31;;;13.63;90.49
30021;BME280;16861;52.294;7.760;2024-02-15T06:59:31;99791.97;;;13.63;90.41
30021;BME280;16861;52.294;7.760;2024-02-15T07:01:58;99801.56;;;13.64;90.63
30021;BME280;16861;52.294;7.760;2024-02-15T07:04:25;99799.78;;;13.65;90.59
30021;BME280;16861;52.294;7.760;2024-02-15T07:06:52;99797.97;;;13.65;90.38
30021;BME280;16861;52.294;7.760;2024-02-15T07:09:21;99797.03;;;13.66;90.72
30021;BME280;16861;52.294;7.760;2024-02-15T07:11:53;99806.75;;;13.66;90.11
30021;BME280;16861;52.294;7.760;2024-02-15T07:14:20;99804.03;;;13.67;90.39
30021;BME280;16861;52.294;7.760;2024-02-15T07:16:47;99801.47;;;13.66;90.23
30021;BME280;16861;52.294;7.760;2024-02-15T07:19:15;99794.50;;;13.65;90.23
30021;BME280;16861;52.294;7.760;2024-02-15T07:21:43;99785.59;;;13.66;90.43
30021;BME280;16861;52.294;7.760;2024-02-15T07:24:10;99776.81;;;13.65;90.62
30021;BME280;16861;52.294;7.760;2024-02-15T07:26:37;99775.03;;;13.66;90.55
30021;BME280;16861;52.294;7.760;2024-02-15T07:29:03;99774.91;;;13.67;90.53
30021;BME280;16861;52.294;7.760;2024-02-15T07:31:34;99775.66;;;13.70;90.60
30021;BME280;16861;52.294;7.760;2024-02-15T07:34:01;99765.06;;;13.70;90.48
30021;BME280;16861;52.294;7.760;2024-02-15T07:36:30;99760.53;;;13.72;90.52
30021;BME280;16861;52.294;7.760;2024-02-15T07:38:56;99767.50;;;13.73;90.49
30021;BME280;16861;52.294;7.760;2024-02-15T07:41:27;99764.75;;;13.74;90.39
30021;BME280;16861;52.294;7.760;2024-02-15T07:43:54;99761.25;;;13.74;90.33
30021;BME280;16861;52.294;7.760;2024-02-15T07:46:22;99765.63;;;13.75;90.33
30021;BME280;16861;52.294;7.760;2024-02-15T07:48:48;99762.00;;;13.76;90.38
30021;BME280;16861;52.294;7.760;2024-02-15T07:51:16;99768.97;;;13.77;90.01
30021;BME280;16861;52.294;7.760;2024-02-15T07:53:44;99770.78;;;13.76;90.09
30021;BME280;16861;52.294;7.760;2024-02-15T07:56:13;99764.66;;;13.76;89.83
30021;BME280;16861;52.294;7.760;2024-02-15T07:58:44;99771.84;;;13.74;89.58
30021;BME280;16861;52.294;7.760;2024-02-15T08:01:19;99764.66;;;13.76;89.82
30021;BME280;16861;52.294;7.760;2024-02-15T08:03:52;99762.84;;;13.76;89.78
30021;BME280;16861;52.294;7.760;2024-02-15T08:06:21;99744.31;;;13.76;89.51
30021;BME280;16861;52.294;7.760;2024-02-15T08:08:50;99742.63;;;13.75;89.60
30021;BME280;16861;52.294;7.760;2024-02-15T08:11:19;99745.38;;;13.74;89.63
30021;BME280;16861;52.294;7.760;2024-02-15T08:13:51;99756.94;;;13.73;89.68
30021;BME280;16861;52.294;7.760;2024-02-15T08:16:22;99763.28;;;13.70;89.61
30021;BME280;16861;52.294;7.760;2024-02-15T08:18:50;99770.25;;;13.71;89.76
30021;BME280;16861;52.294;7.760;2024-02-15T08:21:28;99762.53;;;13.68;89.40
30021;BME280;16861;52.294;7.760;2024-02-15T08:23:56;99773.00;;;13.70;89.90
30021;BME280;16861;52.294;7.760;2024-02-15T08:26:22;99771.31;;;13.68;90.09
30021;BME280;16861;52.294;7.760;2024-02-15T08:28:49;99756.41;;;13.67;90.05
30021;BME280;16861;52.294;7.760;2024-02-15T08:31:16;99757.47;;;13.65;89.92
30021;BME280;16861;52.294;7.760;2024-02-15T08:33:42;99751.44;;;13.63;90.02
30021;BME280;16861;52.294;7.760;2024-02-15T08:36:12;99740.75;;;13.64;90.33
30021;BME280;16861;52.294;7.760;2024-02-15T08:38:42;99739.16;;;13.62;90.29
30021;BME280;16861;52.294;7.760;2024-02-15T08:41:12;99738.31;;;13.61;90.43
30021;BME280;16861;52.294;7.760;2024-02-15T08:43:38;99742.78;;;13.61;90.53
30021;BME280;16861;52.294;7.760;2024-02-15T08:46:08;99738.19;;;13.63;90.47
30021;BME280;16861;52.294;7.760;2024-02-15T08:48:34;99746.03;;;13.64;90.99
30021;BME280;16861;52.294;7.760;2024-02-15T08:51:02;99751.31;;;13.64;90.86
30021;BME280;16861;52.294;7.760;2024-02-15T08:53:29;99739.91;;;13.64;91.22
30021;BME280;16861;52.294;7.760;2024-02-15T08:55:55;99741.59;;;13.65;91.44
30021;BME280;16861;52.294;7.760;2024-02-15T08:58:22;99744.25;;;13.65;91.18
30021;BME280;16861;52.294;7.760;2024-02-15T09:00:49;99748.38;;;13.69;91.28
30021;BME280;16861;52.294;7.760;2024-02-15T09:03:16;99745.63;;;13.71;91.11
30021;BME280;16861;52.294;7.760;2024-02-15T09:05:42;99764.13;;;13.71;90.92
30021;BME280;16861;52.294;7.760;2024-02-15T09:08:09;99754.38;;;13.71;90.88
30021;BME280;16861;52.294;7.760;2024-02-15T09:10:36;99765.81;;;13.72;90.83
30021;BME280;16861;52.294;7.760;2024-02-15T09:13:03;99772.78;;;13.73;90.58
30021;BME280;16861;52.294;7.760;2024-02-15T09:15:29;99757.88;;;13.72;90.60
30021;BME280;16861;52.294;7.760;2024-02-15T09:17:57;99749.94;;;13.72;90.65
30021;BME280;16861;52.294;7.760;2024-02-15T09:20:24;99763.19;;;13.72;90.50
30021;BME280;16861;52.294;7.760;2024-02-15T09:22:55;99763.19;;;13.72;90.49
30021;BME280;16861;52.294;7.760;2024-02-15T09:25:23;99761.50;;;13.71;90.34
30021;BME280;16861;52.294;7.760;2024-02-15T09:27:50;99765.91;;;13.70;90.65
30021;BME280;16861;52.294;7.760;2024-02-15T09:30:17;99767.00;;;13.67;90.52
30021;BME280;16861;52.294;7.760;2024-02-15T09:32:44;99764.34;;;13.67;90.61
30021;BME280;16861;52.294;7.760;2024-02-15T09:35:13;99772.28;;;13.67;90.50
30021;BME280;16861;52.294;7.760;2024-02-15T09:37:47;99770.03;;;13.61;90.21
30021;BME280;16861;52.294;7.760;2024-02-15T09:40:18;99774.16;;;13.65;90.42
30021;BME280;16861;52.294;7.760;2024-02-15T09:42:46;99761.19;;;13.62;90.46
30021;BME280;16861;52.294;7.760;2024-02-15T09:45:14;99758.75;;;13.59;90.53
30021;BME280;16861;52.294;7.760;2024-02-15T09:47:45;99732.41;;;13.58;90.58
30021;BME280;16861;52.294;7.760;2024-02-15T09:50:13;99734.19;;;13.57;90.50
30021;BME280;16861;52.294;7.760;2024-02-15T09:52:44;99730.91;;;13.53;90.45
30021;BME280;16861;52.294;7.760;2024-02-15T09:55:11;99755.56;;;13.54;90.75
30021;BME280;16861;52.294;7.760;2024-02-15T09:57:43;99732.94;;;13.50;90.69
30021;BME280;16861;52.294;7.760;2024-02-15T10:00:11;99730.47;;;13.47;90.81
30021;BME280;16861;52.294;7.760;2024-02-15T10:02:44;99706.06;;;13.43;91.06
30021;BME280;16861;52.294;7.760;2024-02-15T10:05:12;99723.81;;;13.41;91.29
30021;BME280;16861;52.294;7.760;2024-02-15T10:07:43;99716.72;;;13.41;91.51
30021;BME280;16861;52.294;7.760;2024-02-15T10:10:23;99723.19;;;13.37;91.23
30021;BME280;16861;52.294;7.760;2024-02-15T10:12:55;99729.19;;;13.39;91.49
30021;BME280;16861;52.294;7.760;2024-02-15T10:15:35;99727.63;;;13.37;91.52
30021;BME280;16861;52.294;7.760;2024-02-15T10:18:08;99728.38;;;13.39;91.75
30021;BME280;16861;52.294;7.760;2024-02-15T10:20:37;99745.81;;;13.41;91.72
30021;BME280;16861;52.294;7.760;2024-02-15T10:23:11;99736.31;;;13.39;91.76
30021;BME280;16861;52.294;7.760;2024-02-15T10:25:39;99729.94;;;13.41;92.26
30021;BME280;16861;52.294;7.760;2024-02-15T10:28:07;99737.03;;;13.41;92.23
30021;BME280;16861;52.294;7.760;2024-02-15T10:30:39;99721.16;;;13.41;91.96
30021;BME280;16861;52.294;7.760;2024-02-15T10:33:06;99729.94;;;13.41;92.25
30021;BME280;16861;52.294;7.760;2024-02-15T10:35:36;99721.91;;;13.43;92.29
30021;BME280;16861;52.294;7.760;2024-02-15T10:38:07;99707.22;;;13.39;91.96
30021;BME280;16861;52.294;7.760;2024-02-15T10:40:34;99712.16;;;13.43;92.06
30021;BME280;16861;52.294;7.760;2024-02-15T10:43:04;99710.47;;;13.42;92.18
30021;BME280;16861;52.294;7.760;2024-02-15T10:45:35;99702.44;;;13.44;92.22
30021;BME280;16861;52.294;7.760;2024-02-15T10:48:09;99718.41;;;13.42;91.93
30021;BME280;16861;52.294;7.760;2024-02-15T10:50:39;99704.22;;;13.43;92.11
30021;BME280;16861;52.294;7.760;2024-02-15T10:53:28;99711.53;;;13.40;91.94
30021;BME280;16861;52.294;7.760;2024-02-15T10:58:47;99734.28;;;13.42;92.00
30021;BME280;16861;52.294;7.760;2024-02-15T11:01:19;99743.91;;;13.43;92.48
30021;BME280;16861;52.294;7.760;2024-02-15T11:03:57;99729.84;;;13.43;92.39
30021;BME280;16861;52.294;7.760;2024-02-15T11:06:27;99735.84;;;13.45;92.79
30021;BME280;16861;52.294;7.760;2024-02-15T11:08:54;99740.19;;;13.46;92.80
30021;BME280;16861;52.294;7.760;2024-02-15T11:11:21;99715.47;;;13.47;93.06
30021;BME280;16861;52.294;7.760;2024-02-15T11:13:48;99733.75;;;13.50;93.44
30021;BME280;16861;52.294;7.760;2024-02-15T11:16:43;99736.63;;;13.47;93.29
30021;BME280;16861;52.294;7.760;2024-02-15T11:19:10;99731.66;;;13.55;93.98
30021;BME280;16861;52.294;7.760;2024-02-15T11:21:53;99721.19;;;13.54;93.48
30021;BME280;16861;52.294;7.760;2024-02-15T11:24:27;99716.41;;;13.59;93.49
30021;BME280;16861;52.294;7.760;2024-02-15T11:27:05;99712.81;;;13.60;93.50
30021;BME280;16861;52.294;7.760;2024-02-15T11:29:51;99720.53;;;13.63;93.24
30021;BME280;16861;52.294;7.760;2024-02-15T11:35:08;99700.66;;;13.71;93.43
30021;BME280;16861;52.294;7.760;2024-02-15T11:40:23;99702.63;;;13.80;93.52
30021;BME280;16861;52.294;7.760;2024-02-15T11:42:52;99700.00;;;13.80;93.30
30021;BME280;16861;52.294;7.760;2024-02-15T11:45:20;99703.47;;;13.80;93.10
30021;BME280;16861;52.294;7.760;2024-02-15T11:47:49;99696.16;;;13.84;93.14
30021;BME280;16861;52.294;7.760;2024-02-15T11:50:18;99705.78;;;13.85;92.78
30021;BME280;16861;52.294;7.760;2024-02-15T11:52:51;99697.00;;;13.85;92.60
30021;BME280;16861;52.294;7.760;2024-02-15T11:55:19;99706.50;;;13.87;92.67
30021;BME280;16861;52.294;7.760;2024-02-15T11:58:00;99695.22;;;13.85;92.32
30021;BME280;16861;52.294;7.760;2024-02-15T12:00:37;99684.16;;;13.91;93.23
30021;BME280;16861;52.294;7.760;2024-02-15T12:03:23;99698.03;;;13.95;93.44
30021;BME280;16861;52.294;7.760;2024-02-15T12:06:27;99696.00;;;13.99;93.12
30021;BME280;16861;52.294;7.760;2024-02-15T12:09:17;99707.66;;;13.96;92.09
30021;BME280;16861;52.294;7.760;2024-02-15T12:12:03;99693.03;;;14.03;92.74
30021;BME280;16861;52.294;7.760;2024-02-15T12:14:49;99701.69;;;14.05;92.79
30021;BME280;16861;52.294;7.760;2024-02-15T12:17:34;99705.19;;;14.06;92.55
30021;BME280;16861;52.294;7.760;2024-02-15T12:20:19;99699.81;;;14.07;92.17
30021;BME280;16861;52.294;7.760;2024-02-15T12:22:52;99703.16;;;14.10;92.24
30021;BME280;16861;52.294;7.760;2024-02-15T12:25:20;99695.22;;;14.10;92.41
30021;BME280;16861;52.294;7.760;2024-02-15T12:27:59;99700.63;;;14.08;91.42
30021;BME280;16861;52.294;7.760;2024-02-15T12:30:32;99697.75;;;14.11;92.05
30021;BME280;16861;52.294;7.760;2024-02-15T12:33:12;99693.44;;;14.10;91.26
30021;BME280;16861;52.294;7.760;2024-02-15T12:35:41;99692.00;;;14.17;92.56
30021;BME280;16861;52.294;7.760;2024-02-15T12:38:12;99688.19;;;14.22;92.63
30021;BME280;16861;52.294;7.760;2024-02-15T12:40:42;99679.16;;;14.24;92.67
30021;BME280;16861;52.294;7.760;2024-02-15T12:43:12;99671.00;;;14.27;92.52
30021;BME280;16861;52.294;7.760;2024-02-15T12:45:40;99679.56;;;14.31;92.40
30021;BME280;16861;52.294;7.760;2024-02-15T12:48:10;99676.78;;;14.32;91.99
30021;BME280;16861;52.294;7.760;2024-02-15T12:50:37;99675.63;;;14.37;92.34
30021;BME280;16861;52.294;7.760;2024-02-15T12:53:04;99675.41;;;14.40;92.49
30021;BME280;16861;52.294;7.760;2024-02-15T12:55:36;99671.66;;;14.42;91.35
30021;BME280;16861;52.294;7.760;2024-02-15T12:58:05;99662.44;;;14.48;92.30
30021;BME280;16861;52.294;7.760;2024-02-15T13:00:36;99668.31;;;14.52;92.47
30021;BME280;16861;52.294;7.760;2024-02-15T13:03:08;99655.69;;;14.55;92.23
30021;BME280;16861;52.294;7.760;2024-02-15T13:05:41;99652.69;;;14.60;92.41
30021;BME280;16861;52.294;7.760;2024-02-15T13:08:09;99661.25;;;14.64;91.84
30021;BME280;16861;52.294;7.760;2024-02-15T13:10:44;99659.22;;;14.67;91.55
30021;BME280;16861;52.294;7.760;2024-02-15T13:13:11;99656.47;;;14.69;91.25
30021;BME280;16861;52.294;7.760;2024-02-15T13:15:38;99658.97;;;14.70;90.94
30021;BME280;16861;52.294;7.760;2024-02-15T13:18:06;99663.22;;;14.73;90.95
30021;BME280;16861;52.294;7.760;2024-02-15T13:20:37;99646.47;;;14.72;90.91